METAR Data
IDs: Format: Raw Decoded Include TAF

Data at: 1304 UTC 11 Dec 2018

KUVA 111255Z AUTO 00000KT 10SM CLR 02/00 A3039 RMK AO2 T00150003
KUVA 111235Z AUTO 00000KT 10SM CLR 01/00 A3039 RMK AO2 T00140004
KUVA 111215Z AUTO 04005KT 10SM CLR 01/00 A3037 RMK AO2 T00130003
KUVA 111155Z AUTO 04005KT 10SM CLR 01/00 A3037 RMK AO2 T00100002 10032 20009
KUVA 111135Z AUTO 04003KT 10SM CLR 01/00 A3037 RMK AO2 T00110002
KUVA 111115Z AUTO 04003KT 10SM CLR 02/00 A3037 RMK AO2 T00150003
KUVA 111055Z AUTO 04004KT 10SM CLR 02/01 A3038 RMK AO2 T00190007
KUVA 111035Z AUTO 03005KT 10SM CLR 02/01 A3038 RMK AO2 T00150006
KUVA 111015Z AUTO 04005KT 10SM CLR 01/00 A3039 RMK AO2 T00120003
KUVA 110955Z AUTO 03004KT 10SM CLR 01/01 A3039 RMK AO2 T00130005
KUVA 110935Z AUTO 03004KT 10SM CLR 02/01 A3039 RMK AO2 T00150005
KUVA 110915Z AUTO 00000KT 10SM CLR 01/00 A3040 RMK AO2 T00140004
KUVA 110855Z AUTO 04004KT 10SM CLR 01/01 A3039 RMK AO2 T00140005
KUVA 110835Z AUTO 03005KT 10SM CLR 02/00 A3039 RMK AO2 T00150004
KUVA 110815Z AUTO 04004KT 10SM CLR 02/00 A3040 RMK AO2 T00160003
KUVA 110755Z AUTO 04004KT 10SM CLR 02/00 A3040 RMK AO2 T00170004
KUVA 110735Z AUTO 04004KT 10SM CLR 02/01 A3040 RMK AO2 T00210007
KUVA 110715Z AUTO 04006KT 10SM CLR 02/01 A3040 RMK AO2 T00210007
KUVA 110655Z AUTO 02003KT 10SM CLR 02/01 A3040 RMK AO2 T00240007
KUVA 110635Z AUTO 03003KT 10SM CLR 02/01 A3040 RMK AO2 T00210005
KUVA 110615Z AUTO 04003KT 10SM CLR 03/01 A3040 RMK AO2 T00310010
KUVA 110555Z AUTO 05005KT 10SM CLR 02/01 A3041 RMK AO2 T00220006 10127 20022 401561001
KUVA 110535Z AUTO 06004KT 10SM CLR 03/01 A3041 RMK AO2 T00280011
KUVA 110515Z AUTO 05004KT 10SM CLR 03/01 A3042 RMK AO2 T00310013
KUVA 110455Z AUTO 04003KT 10SM CLR 04/01 A3042 RMK AO2 T00350014
KUVA 110435Z AUTO 05004KT 10SM CLR 03/01 A3041 RMK AO2 T00340014
KUVA 110415Z AUTO 05003KT 10SM CLR 05/02 A3041 RMK AO2 T00500021
KUVA 110355Z AUTO 06004KT 10SM CLR 04/02 A3041 RMK AO2 T00440018
KUVA 110335Z AUTO 00000KT 10SM CLR 06/02 A3040 RMK AO2 T00640022
KUVA 110315Z AUTO 00000KT 10SM CLR 07/02 A3040 RMK AO2 T00680020
KUVA 110255Z AUTO 00000KT 10SM CLR 07/02 A3040 RMK AO2 T00700020
KUVA 110235Z AUTO 00000KT 10SM CLR 06/02 A3039 RMK AO2 T00640020
KUVA 110215Z AUTO 14004KT 10SM CLR 07/02 A3038 RMK AO2 T00730021
KUVA 110155Z AUTO 00000KT 10SM CLR 07/02 A3039 RMK AO2 T00740018
KUVA 110135Z AUTO 14004KT 10SM CLR 08/02 A3038 RMK AO2 T00780020
KUVA 110115Z AUTO 16004KT 10SM CLR 09/02 A3038 RMK AO2 T00890016
KUVA 110055Z AUTO 17005KT 10SM CLR 09/01 A3037 RMK AO2 T00920014
KUVA 110035Z AUTO 15004KT 10SM CLR 10/01 A3036 RMK AO2 T01040011
KUVA 110015Z AUTO 15004KT 10SM CLR 12/01 A3036 RMK AO2 T01150011
KUVA 102355Z AUTO 16003KT 10SM CLR 13/01 A3036 RMK AO2 T01280008 10156 20114
KUVA 102335Z AUTO 18004KT 10SM CLR 14/01 A3035 RMK AO2 T01350006
KUVA 102315Z AUTO 19003KT 10SM CLR 14/01 A3035 RMK AO2 T01440011
KUVA 102255Z AUTO 00000KT 10SM CLR 15/00 A3034 RMK AO2 T01520000
KUVA 102235Z AUTO 00000KT 10SM CLR 15/00 A3034 RMK AO2 T01541001
KUVA 102215Z AUTO 00000KT 10SM CLR 16/00 A3034 RMK AO2 T01550003
KUVA 102155Z AUTO 25005KT 10SM CLR 16/00 A3034 RMK AO2 T01560004
KUVA 102135Z AUTO 28004KT 10SM CLR 15/00 A3034 RMK AO2 T01520001
KUVA 102115Z AUTO 24003KT 10SM CLR 15/00 A3034 RMK AO2 T01521003
KUVA 102055Z AUTO 00000KT 10SM CLR 15/00 A3034 RMK AO2 T01520000
KUVA 102035Z AUTO 30005KT 10SM CLR 15/00 A3035 RMK AO2 T01490002
KUVA 102015Z AUTO 00000KT 10SM CLR 15/00 A3035 RMK AO2 T01450004
KUVA 101955Z AUTO 24005KT 10SM CLR 14/00 A3036 RMK AO2 T01400004
KUVA 101935Z AUTO 31006KT 10SM CLR 13/01 A3037 RMK AO2 T01340007
KUVA 101915Z AUTO 26004KT 10SM CLR 14/01 A3039 RMK AO2 T01350007
KUVA 101855Z AUTO 27007KT 10SM CLR 13/01 A3040 RMK AO2 T01290005
KUVA 101835Z AUTO 26005KT 10SM CLR 12/00 A3042 RMK AO2 T01230002
KUVA 101815Z AUTO 25006KT 10SM CLR 12/01 A3043 RMK AO2 T01210006
KUVA 101755Z AUTO 27008KT 10SM CLR 11/01 A3044 RMK AO2 T01140012 10114 21001
KUVA 101735Z AUTO 28004KT 10SM CLR 11/00 A3045 RMK AO2 T01071005
KUVA 101715Z AUTO 26007KT 10SM CLR 10/00 A3046 RMK AO2 T01001003
KUVA 101655Z AUTO 27005KT 10SM CLR 09/02 A3046 RMK AO2 T00930020
KUVA 101635Z AUTO 25005KT 10SM CLR 09/02 A3047 RMK AO2 T00860023
KUVA 101615Z AUTO 26004KT 10SM CLR 07/02 A3047 RMK AO2 T00740024
KUVA 101555Z AUTO 25003KT 10SM CLR 06/02 A3047 RMK AO2 T00630020
KUVA 101535Z AUTO 27003KT 10SM CLR 06/02 A3047 RMK AO2 T00560018
KUVA 101515Z AUTO 29003KT 10SM CLR 05/02 A3046 RMK AO2 T00450015
KUVA 101455Z AUTO 28004KT 10SM CLR 04/01 A3046 RMK AO2 T00350012
KUVA 101435Z AUTO 29005KT 10SM CLR 03/01 A3046 RMK AO2 T00250009
KUVA 101415Z AUTO 31004KT 10SM CLR 02/01 A3045 RMK AO2 T00200005
KUVA 101355Z AUTO 29004KT 10SM CLR 01/00 A3044 RMK AO2 T00130000
KUVA 101335Z AUTO 28003KT 10SM CLR 00/00 A3044 RMK AO2 T00041001
KUVA 101315Z AUTO 00000KT 10SM CLR 00/00 A3044 RMK AO2 T00001004
KUVA 101255Z AUTO 25003KT 10SM CLR 01/00 A3043 RMK AO2 T00050000
KUVA 101235Z AUTO 27004KT 10SM CLR 01/00 A3043 RMK AO2 T00050000
KUVA 101215Z AUTO 25003KT 10SM CLR 00/M01 A3042 RMK AO2 T10011009
KUVA 101155Z AUTO 00000KT 10SM CLR 01/00 A3041 RMK AO2 T00060000 10050 20000
KUVA 101135Z AUTO 00000KT 10SM CLR 00/00 A3040 RMK AO2 T00011003
KUVA 101115Z AUTO 00000KT 10SM CLR 00/M01 A3040 RMK AO2 T00001008
KUVA 101055Z AUTO 00000KT 10SM CLR 01/00 A3040 RMK AO2 T00051002
KUVA 101035Z AUTO 00000KT 10SM CLR 01/00 A3040 RMK AO2 T00140003
KUVA 101015Z AUTO 00000KT 10SM CLR 02/00 A3041 RMK AO2 T00150001
KUVA 100955Z AUTO 00000KT 10SM CLR 02/00 A3040 RMK AO2 T00160001
KUVA 100935Z AUTO 00000KT 10SM CLR 02/00 A3040 RMK AO2 T00200003
KUVA 100915Z AUTO 00000KT 10SM CLR 02/00 A3040 RMK AO2 T00190000
KUVA 100855Z AUTO 35003KT 10SM CLR 02/01 A3040 RMK AO2 T00240005
KUVA 100835Z AUTO 35006KT 10SM CLR 03/00 A3040 RMK AO2 T00250004
KUVA 100815Z AUTO 36004KT 10SM CLR 02/01 A3041 RMK AO2 T00240007
KUVA 100755Z AUTO 00000KT 10SM CLR 03/01 A3041 RMK AO2 T00260006
KUVA 100735Z AUTO 36004KT 10SM CLR 03/01 A3041 RMK AO2 T00300009
KUVA 100715Z AUTO 36005KT 10SM CLR 03/01 A3041 RMK AO2 T00320006
KUVA 100655Z AUTO 36004KT 10SM CLR 03/01 A3041 RMK AO2 T00310006
KUVA 100635Z AUTO 35005KT 10SM CLR 03/01 A3041 RMK AO2 T00340006
KUVA 100615Z AUTO 01003KT 10SM CLR 04/01 A3041 RMK AO2 T00400009
KUVA 100555Z AUTO 36004KT 10SM CLR 05/01 A3041 RMK AO2 T00530010 10112 20051 401470010
KUVA 100535Z AUTO 02006KT 10SM CLR 06/01 A3041 RMK AO2 T00570013
KUVA 100515Z AUTO 02006KT 10SM CLR 06/01 A3041 RMK AO2 T00560012
KUVA 100455Z AUTO 01006KT 10SM CLR 06/01 A3042 RMK AO2 T00550011
KUVA 100435Z AUTO 02006KT 10SM CLR 06/01 A3041 RMK AO2 T00600012
KUVA 100415Z AUTO 01006KT 10SM CLR 06/01 A3041 RMK AO2 T00630011
KUVA 100355Z AUTO 02006KT 10SM CLR 06/01 A3040 RMK AO2 T00570010
KUVA 100335Z AUTO 03004KT 10SM CLR 05/01 A3039 RMK AO2 T00520010
KUVA 100315Z AUTO 03004KT 10SM CLR 06/01 A3038 RMK AO2 T00560006
KUVA 100255Z AUTO 02004KT 10SM CLR 06/01 A3037 RMK AO2 T00640007
KUVA 100235Z AUTO 03005KT 10SM CLR 07/01 A3036 RMK AO2 T00680006
KUVA 100215Z AUTO 02005KT 10SM CLR 08/01 A3036 RMK AO2 T00760006
KUVA 100155Z AUTO 01005KT 10SM CLR 07/01 A3035 RMK AO2 T00710011
KUVA 100135Z AUTO 35006KT 10SM CLR 08/01 A3034 RMK AO2 T00770008
KUVA 100115Z AUTO 35004KT 10SM CLR 09/01 A3034 RMK AO2 T00850007